Time;durP1;ratioP1;P1;durP2;ratioP2;P2;SDS_P1;SDS_P2;PMS_P1;PMS_P2;Temp;Humidity;BMP_temperature;BMP_pressure;BME280_temperature;BME280_humidity;BME280_pressure;Samples;Min_cycle;Max_cycle;Signal;HPM_P1;HPM_P2
2021/01/10 00:00:45;;;;;;;41.28;22.82;;;;;;;1.71;81.42;99096.62;1720006;83;21321;-72
2021/01/10 00:03:14;;;;;;;42.85;23.25;;;;;;;1.71;81.46;99104.25;1720218;83;21596;-72
2021/01/10 00:05:42;;;;;;;40.05;22.60;;;;;;;1.76;81.28;99098.98;1720253;83;21167;-72
2021/01/10 00:08:10;;;;;;;40.55;23.20;;;;;;;1.79;81.09;99106.75;1720235;83;21170;-73
2021/01/10 00:10:39;;;;;;;33.85;20.08;;;;;;;1.83;81.00;99107.39;1720611;83;21751;-70
2021/01/10 00:13:06;;;;;;;39.42;21.48;;;;;;;1.85;80.79;99108.30;1720460;83;21158;-71
2021/01/10 00:15:34;;;;;;;38.80;21.60;;;;;;;1.89;80.72;99108.94;1720238;83;21261;-71
2021/01/10 00:18:05;;;;;;;40.48;21.87;;;;;;;1.94;80.49;99111.70;1720385;83;21607;-70
2021/01/10 00:20:33;;;;;;;40.12;23.50;;;;;;;1.90;80.18;99107.26;1720847;83;21175;-72
2021/01/10 00:23:02;;;;;;;39.85;21.90;;;;;;;1.91;80.27;99116.25;1721328;83;21167;-72
2021/01/10 00:25:33;;;;;;;39.58;22.95;;;;;;;1.94;80.13;99118.06;1720669;83;21305;-71
2021/01/10 00:28:02;;;;;;;41.60;23.55;;;;;;;1.97;80.16;99119.88;1721380;83;21198;-72
2021/01/10 00:30:30;;;;;;;42.40;22.62;;;;;;;2.02;80.05;99120.97;1721034;83;21723;-71
2021/01/10 00:32:57;;;;;;;42.67;22.70;;;;;;;2.03;79.88;99126.52;1721309;83;21167;-72
2021/01/10 00:35:26;;;;;;;38.73;22.25;;;;;;;2.04;79.91;99123.20;1720926;83;21301;-72
2021/01/10 00:37:56;;;;;;;41.68;23.10;;;;;;;2.08;79.74;99119.98;1720168;83;21198;-71
2021/01/10 00:40:26;;;;;;;42.50;22.40;;;;;;;2.06;79.62;99122.84;1720439;83;21167;-71
2021/01/10 00:42:54;;;;;;;38.55;22.67;;;;;;;2.05;79.49;99120.70;1720026;83;21166;-74
2021/01/10 00:45:22;;;;;;;41.95;23.32;;;;;;;2.02;79.59;99121.84;1720045;83;21703;-72
2021/01/10 00:47:54;;;;;;;40.52;22.95;;;;;;;2.04;79.59;99119.38;1720262;83;21154;-73
2021/01/10 00:50:23;;;;;;;46.25;23.87;;;;;;;2.02;79.51;99114.20;1720209;83;21253;-71
2021/01/10 00:52:52;;;;;;;41.28;22.85;;;;;;;2.06;79.55;99112.66;1720032;83;21187;-72
2021/01/10 00:55:20;;;;;;;42.23;24.65;;;;;;;2.08;79.55;99113.61;1720232;83;21576;-72
2021/01/10 00:57:48;;;;;;;42.83;23.40;;;;;;;2.12;79.47;99121.88;1695492;83;21308;-72
2021/01/10 01:00:18;;;;;;;38.45;23.20;;;;;;;2.15;79.35;99116.92;1720247;83;21183;-73
2021/01/10 01:02:49;;;;;;;40.25;23.12;;;;;;;2.14;79.26;99124.10;1720014;81;21174;-72
2021/01/10 01:05:19;;;;;;;39.95;21.93;;;;;;;2.13;79.25;99123.61;1720067;83;21328;-71
2021/01/10 01:07:49;;;;;;;40.28;22.67;;;;;;;2.14;78.98;99120.28;1720189;83;21174;-71
2021/01/10 01:10:19;;;;;;;43.42;24.32;;;;;;;2.11;78.99;99125.20;1720469;83;21186;-73
2021/01/10 01:12:47;;;;;;;45.15;24.63;;;;;;;2.05;79.10;99122.38;1720377;83;21163;-71
2021/01/10 01:15:15;;;;;;;44.40;25.25;;;;;;;2.07;79.15;99120.38;1720155;83;21159;-74
2021/01/10 01:17:42;;;;;;;40.63;24.02;;;;;;;2.09;79.21;99116.24;1720342;83;21175;-73
2021/01/10 01:20:10;;;;;;;42.70;24.35;;;;;;;2.11;79.03;99126.11;1720183;83;21191;-72
2021/01/10 01:22:39;;;;;;;37.95;22.80;;;;;;;2.12;79.04;99121.47;1720164;83;21747;-72
2021/01/10 01:25:09;;;;;;;39.45;24.23;;;;;;;2.11;78.89;99113.75;1720359;83;21146;-75
2021/01/10 01:27:36;;;;;;;44.08;24.43;;;;;;;2.08;78.97;99122.52;1720479;83;21350;-73
2021/01/10 01:30:06;;;;;;;44.67;25.30;;;;;;;2.06;79.08;99121.57;1720219;83;21297;-75
2021/01/10 01:32:35;;;;;;;41.15;22.93;;;;;;;2.08;78.97;99121.25;1720278;83;21186;-73
2021/01/10 01:35:05;;;;;;;44.27;25.10;;;;;;;2.01;79.00;99122.66;1720382;83;21596;-72
2021/01/10 01:37:36;;;;;;;43.08;24.25;;;;;;;1.98;79.24;99119.07;1720359;83;21324;-73
2021/01/10 01:40:09;;;;;;;41.55;24.40;;;;;;;1.93;79.34;99113.76;1696150;83;21139;-72
2021/01/10 01:42:37;;;;;;;46.55;25.27;;;;;;;1.94;79.35;99118.94;1696127;83;21166;-73
2021/01/10 01:45:08;;;;;;;40.75;24.35;;;;;;;1.90;79.52;99117.03;1720412;83;21691;-74
2021/01/10 01:47:36;;;;;;;48.77;23.97;;;;;;;1.88;79.54;99113.56;1720660;83;21182;-74
2021/01/10 01:50:06;;;;;;;48.33;25.48;;;;;;;1.83;79.69;99120.48;1720180;83;21292;-71
2021/01/10 01:52:34;;;;;;;43.58;23.00;;;;;;;1.76;79.84;99117.20;1720156;83;21194;-73
2021/01/10 01:55:04;;;;;;;40.03;24.45;;;;;;;1.69;80.04;99121.10;1720136;83;21167;-74
2021/01/10 01:57:32;;;;;;;44.15;24.80;;;;;;;1.68;80.32;99115.16;1720414;83;21689;-73
2021/01/10 02:00:01;;;;;;;48.68;25.85;;;;;;;1.67;80.41;99110.84;1720304;83;21296;-71
2021/01/10 02:02:30;;;;;;;51.18;26.62;;;;;;;1.62;80.58;99111.02;1721991;83;21721;-71
2021/01/10 02:05:11;;;;;;;43.02;24.50;;;;;;;1.57;80.85;99115.01;1730893;83;21333;-73
2021/01/10 02:08:02;;;;;;;43.78;24.72;;;;;;;1.52;80.99;99120.27;1730969;83;21307;-71
2021/01/10 02:10:34;;;;;;;45.55;25.40;;;;;;;1.50;81.20;99121.48;1731900;82;21185;-68
2021/01/10 02:13:06;;;;;;;43.28;24.50;;;;;;;1.49;81.30;99129.89;1731917;83;21173;-70
2021/01/10 02:15:37;;;;;;;51.53;25.48;;;;;;;1.56;81.45;99130.21;1730940;82;21224;-73
2021/01/10 02:18:09;;;;;;;46.37;27.10;;;;;;;1.59;81.45;99125.27;1730878;83;21367;-74
2021/01/10 02:20:38;;;;;;;;;;;;;;;1.62;81.52;99133.05;1733314;83;21178;-73
2021/01/10 02:23:13;;;;;;;48.58;26.20;;;;;;;1.66;81.58;99133.68;1730745;83;20214;-75
2021/01/10 02:25:46;;;;;;;47.60;25.77;;;;;;;1.73;81.51;99138.23;1730941;83;21173;-72
2021/01/10 02:28:21;;;;;;;46.55;27.55;;;;;;;1.80;81.38;99135.20;1731282;83;21715;-72
2021/01/10 02:30:51;;;;;;;48.87;26.20;;;;;;;1.85;81.21;99132.48;1732132;83;21178;-72
2021/01/10 02:33:52;;;;;;;48.40;25.55;;;;;;;1.83;81.22;99134.47;1732340;83;21162;-72
2021/01/10 02:36:45;;;;;;;49.05;27.37;;;;;;;1.82;81.24;99131.06;1732034;83;21608;-75
2021/01/10 02:39:30;;;;;;;50.28;27.95;;;;;;;1.82;81.28;99123.43;1731767;83;21329;-73
2021/01/10 02:42:35;;;;;;;47.67;26.73;;;;;;;1.79;81.27;99123.29;1731786;83;21177;-72
2021/01/10 02:45:12;;;;;;;52.35;27.10;;;;;;;1.64;81.52;99131.45;1731145;82;21556;-76
2021/01/10 02:47:40;;;;;;;47.70;26.52;;;;;;;1.57;81.89;99131.95;1730798;83;21337;-75
2021/01/10 02:50:10;;;;;;;45.67;25.32;;;;;;;1.58;82.09;99128.59;1730694;83;21186;-71
2021/01/10 02:52:39;;;;;;;48.85;27.37;;;;;;;1.62;82.09;99127.95;1730792;83;21162;-74
2021/01/10 02:55:08;;;;;;;46.48;26.80;;;;;;;1.64;82.12;99125.09;1730862;83;21185;-74
2021/01/10 02:57:37;;;;;;;50.60;26.73;;;;;;;1.65;82.08;99122.61;1730935;83;21150;-74
2021/01/10 03:00:08;;;;;;;52.27;27.10;;;;;;;1.65;82.13;99125.55;1730974;83;21552;-72
2021/01/10 03:02:37;;;;;;;46.55;26.95;;;;;;;1.68;82.14;99126.97;1729674;83;21324;-74
2021/01/10 03:05:09;;;;;;;49.53;26.15;;;;;;;1.68;82.08;99121.88;1714575;83;21162;-72
2021/01/10 03:07:39;;;;;;;50.20;27.87;;;;;;;1.72;82.11;99131.42;1715001;82;21573;-73
2021/01/10 03:10:10;;;;;;;48.85;27.73;;;;;;;1.73;82.13;99124.25;1714981;82;21737;-73
2021/01/10 03:12:40;;;;;;;55.67;29.12;;;;;;;1.79;82.01;99130.92;1714926;83;21163;-74
2021/01/10 03:15:09;;;;;;;48.35;26.65;;;;;;;1.87;81.97;99130.89;1714741;82;21198;-72
2021/01/10 03:17:50;;;;;;;51.67;28.90;;;;;;;1.95;81.68;99128.30;1714767;83;21162;-72
2021/01/10 03:20:20;;;;;;;47.43;27.40;;;;;;;2.00;81.48;99127.66;1714987;82;21183;-73
2021/01/10 03:22:50;;;;;;;;;;;;;;;1.95;81.47;99125.75;1717542;83;21720;-72
2021/01/10 03:25:22;;;;;;;51.33;28.55;;;;;;;1.98;81.47;99127.98;1714965;82;20148;-73
2021/01/10 03:27:51;;;;;;;50.05;28.12;;;;;;;1.98;81.41;99130.52;1714928;84;21285;-73
2021/01/10 03:30:19;;;;;;;49.30;27.25;;;;;;;1.99;81.31;99130.61;1714902;83;21174;-74
2021/01/10 03:32:49;;;;;;;49.15;26.57;;;;;;;1.96;81.21;99126.66;1714716;83;21166;-73
2021/01/10 03:35:18;;;;;;;49.08;26.48;;;;;;;1.92;81.29;99125.62;1714976;84;21167;-74
2021/01/10 03:37:47;;;;;;;48.08;27.13;;;;;;;1.94;81.30;99127.84;1714723;82;21159;-75
2021/01/10 03:40:16;;;;;;;49.45;26.70;;;;;;;1.91;81.27;99128.98;1714662;83;21617;-73
2021/01/10 03:42:44;;;;;;;45.83;26.15;;;;;;;1.92;81.35;99127.30;1715075;84;21416;-73
2021/01/10 03:45:15;;;;;;;42.73;26.20;;;;;;;1.94;81.25;99127.84;1714793;83;21163;-71
2021/01/10 03:47:43;;;;;;;47.93;25.82;;;;;;;1.94;81.26;99132.93;1715130;83;21325;-74
2021/01/10 03:50:11;;;;;;;44.30;25.57;;;;;;;1.95;81.32;99127.44;1714945;83;21569;-73
2021/01/10 03:52:39;;;;;;;53.23;29.85;;;;;;;1.95;81.28;99128.30;1714893;83;21159;-73
2021/01/10 03:55:09;;;;;;;49.40;27.00;;;;;;;1.99;81.31;99123.38;1714712;82;21732;-74
2021/01/10 03:57:38;;;;;;;50.65;29.65;;;;;;;2.04;81.26;99127.88;1714943;82;21297;-73
2021/01/10 04:00:10;;;;;;;50.78;28.80;;;;;;;2.07;81.16;99130.97;1714651;82;21150;-72
2021/01/10 04:02:39;;;;;;;47.45;27.22;;;;;;;2.06;81.05;99131.38;1714661;83;21249;-74
2021/01/10 04:05:09;;;;;;;46.08;26.82;;;;;;;2.08;80.93;99132.70;1714707;82;21317;-75
2021/01/10 04:07:37;;;;;;;51.80;28.38;;;;;;;2.06;80.83;99136.47;1714726;83;21720;-75
2021/01/10 04:10:06;;;;;;;46.63;25.97;;;;;;;2.03;80.96;99133.75;1714885;82;21178;-74
2021/01/10 04:12:34;;;;;;;47.08;26.10;;;;;;;2.02;80.80;99136.24;1714814;83;21174;-74
2021/01/10 04:15:02;;;;;;;45.48;25.48;;;;;;;1.91;80.83;99137.02;1714944;84;21178;-73
2021/01/10 04:17:30;;;;;;;46.90;25.82;;;;;;;1.82;81.12;99145.47;1714883;82;21188;-73
2021/01/10 04:19:58;;;;;;;47.45;26.17;;;;;;;1.83;81.26;99139.56;1714639;83;21163;-73
2021/01/10 04:22:26;;;;;;;46.33;25.02;;;;;;;1.82;81.24;99141.24;1715018;83;21135;-74
2021/01/10 04:24:54;;;;;;;46.60;25.48;;;;;;;1.75;81.45;99137.92;1714688;83;21163;-71
2021/01/10 04:27:22;;;;;;;48.85;26.52;;;;;;;1.64;81.63;99141.63;1714689;82;21308;-74
2021/01/10 04:29:52;;;;;;;46.68;26.05;;;;;;;1.62;81.88;99145.77;1714386;83;21151;-74
2021/01/10 04:32:21;;;;;;;47.27;27.37;;;;;;;1.68;82.05;99149.86;1714729;83;21307;-74
2021/01/10 04:34:50;;;;;;;41.88;23.38;;;;;;;1.76;82.00;99147.73;1714868;83;21416;-73
2021/01/10 04:37:17;;;;;;;47.65;24.87;;;;;;;1.82;81.81;99148.01;1714721;83;21139;-72
2021/01/10 04:39:45;;;;;;;43.58;23.60;;;;;;;1.86;81.76;99158.42;1715166;83;21171;-72
2021/01/10 04:42:14;;;;;;;43.73;23.65;;;;;;;1.91;81.71;99160.78;1716342;84;21300;-73
2021/01/10 04:44:43;;;;;;;46.63;25.55;;;;;;;1.81;81.61;99164.09;1716022;83;21196;-71
2021/01/10 04:47:11;;;;;;;43.65;24.70;;;;;;;1.68;81.94;99166.02;1716656;83;21612;-73
2021/01/10 04:49:40;;;;;;;44.23;24.98;;;;;;;1.67;82.15;99165.53;1685979;84;21208;-72
2021/01/10 04:52:09;;;;;;;44.10;24.15;;;;;;;1.62;82.30;99168.25;1716227;83;21190;-74
2021/01/10 04:54:45;;;;;;;49.45;24.72;;;;;;;1.58;82.38;99182.91;1669646;85;21202;-71
2021/01/10 04:57:12;;;;;;;47.45;24.10;;;;;;;1.55;82.63;99174.23;1692705;84;21169;-73
2021/01/10 04:59:43;;;;;;;45.30;24.47;;;;;;;1.59;82.75;99185.05;1692862;84;21304;-74
2021/01/10 05:02:11;;;;;;;48.20;24.32;;;;;;;1.62;82.79;99178.83;1693286;85;21187;-72
2021/01/10 05:04:41;;;;;;;48.28;24.75;;;;;;;1.63;82.82;99182.73;1717405;83;21177;-71
2021/01/10 05:07:09;;;;;;;45.35;25.08;;;;;;;1.52;82.97;99185.98;1701483;83;21152;-71
2021/01/10 05:09:37;;;;;;;43.35;24.07;;;;;;;1.44;83.29;99191.50;1729061;83;21150;-75
2021/01/10 05:12:05;;;;;;;45.40;23.20;;;;;;;1.43;83.45;99189.77;1700433;83;21232;-74
2021/01/10 05:14:33;;;;;;;41.65;22.98;;;;;;;1.37;83.62;99191.98;1729234;83;21186;-74
2021/01/10 05:17:02;;;;;;;46.45;24.37;;;;;;;1.30;83.95;99198.03;1728977;83;21134;-73
2021/01/10 05:19:31;;;;;;;46.85;24.95;;;;;;;1.30;84.10;99199.71;1729265;83;21178;-74
2021/01/10 05:22:08;;;;;;;45.63;24.35;;;;;;;1.29;84.24;99199.22;1729219;83;21153;-73
2021/01/10 05:24:29;;;;;;;46.63;25.35;;;;;;;1.37;84.36;99204.28;1724581;83;21579;-75
2021/01/10 05:26:57;;;;;;;43.85;23.47;;;;;;;1.45;84.24;99204.67;1728985;83;21173;-71
2021/01/10 05:29:27;;;;;;;44.23;23.50;;;;;;;1.51;84.11;99207.14;1729141;83;21173;-74
2021/01/10 05:31:55;;;;;;;48.70;24.55;;;;;;;1.59;83.94;99205.39;1728912;83;21199;-76
2021/01/10 05:34:24;;;;;;;46.00;25.70;;;;;;;1.59;83.78;99207.94;1729186;83;21134;-70
2021/01/10 05:36:52;;;;;;;51.42;25.00;;;;;;;1.59;83.77;99211.75;1700645;83;21185;-70
2021/01/10 05:39:29;;;;;;;45.90;24.75;;;;;;;1.63;83.75;99213.63;1729409;83;21304;-73
2021/01/10 05:42:04;;;;;;;46.25;23.65;;;;;;;1.69;83.56;99212.69;1729130;83;21312;-74
2021/01/10 05:44:43;;;;;;;38.63;22.93;;;;;;;1.71;83.30;99213.64;1729022;83;21182;-73
2021/01/10 05:47:14;;;;;;;45.52;25.27;;;;;;;1.66;83.30;99218.90;1728681;82;21158;-76
2021/01/10 05:49:54;;;;;;;49.93;24.63;;;;;;;1.64;83.28;99220.48;1728963;83;21276;-74
2021/01/10 05:52:23;;;;;;;49.03;23.98;;;;;;;1.65;83.30;99217.13;1728934;83;21190;-73
2021/01/10 05:54:58;;;;;;;48.05;24.72;;;;;;;1.67;83.35;99221.91;1729095;83;21181;-74
2021/01/10 05:57:28;;;;;;;48.60;24.70;;;;;;;1.70;83.33;99226.73;1728897;83;21193;-75
2021/01/10 05:59:57;;;;;;;43.08;22.52;;;;;;;1.76;83.22;99222.78;1728880;83;21174;-73
2021/01/10 06:02:50;;;;;;;44.93;24.37;;;;;;;1.81;83.05;99232.79;1728842;83;21162;-75
2021/01/10 06:05:19;;;;;;;46.08;23.85;;;;;;;1.84;83.02;99232.94;1707763;84;21151;-72
2021/01/10 06:07:48;;;;;;;49.53;25.95;;;;;;;1.89;82.86;99233.63;1708165;84;21175;-72
2021/01/10 06:10:28;;;;;;;45.15;24.23;;;;;;;1.93;82.80;99239.36;1708338;84;21214;-73
2021/01/10 06:13:06;;;;;;;44.38;23.62;;;;;;;1.97;82.66;99235.69;1708513;84;21178;-74
2021/01/10 06:15:35;;;;;;;46.83;25.10;;;;;;;1.99;82.50;99241.73;1708324;84;21177;-75
2021/01/10 06:18:05;;;;;;;45.50;24.67;;;;;;;2.02;82.43;99246.97;1708114;84;21324;-73
2021/01/10 06:20:34;;;;;;;49.20;24.67;;;;;;;2.03;82.28;99244.48;1708091;84;21328;-70
2021/01/10 06:23:05;;;;;;;47.48;24.47;;;;;;;2.03;82.23;99249.56;1708078;84;21130;-72
2021/01/10 06:25:37;;;;;;;42.60;24.10;;;;;;;2.01;82.14;99255.01;1708372;84;21190;-70
2021/01/10 06:28:15;;;;;;;48.25;24.82;;;;;;;2.04;82.28;99255.16;1708473;84;21190;-72
2021/01/10 06:31:01;;;;;;;48.50;25.82;;;;;;;2.10;82.24;99250.75;1711595;83;21169;-71
2021/01/10 06:33:31;;;;;;;47.13;26.20;;;;;;;2.16;81.92;99261.22;1693031;83;21639;-70
2021/01/10 06:36:08;;;;;;;46.30;24.70;;;;;;;2.15;81.81;99267.13;1720773;83;21324;-73
2021/01/10 06:38:38;;;;;;;43.95;24.12;;;;;;;2.10;81.84;99263.08;1720626;83;21174;-73
2021/01/10 06:41:54;;;;;;;42.85;23.60;;;;;;;2.13;81.79;99268.31;1720816;83;21186;-72
2021/01/10 06:44:23;;;;;;;46.73;24.87;;;;;;;2.18;81.83;99266.86;1720820;83;21162;-71
2021/01/10 06:46:55;;;;;;;47.78;25.37;;;;;;;2.31;81.68;99273.83;1720760;83;21149;-71
2021/01/10 06:49:23;;;;;;;43.98;24.40;;;;;;;2.33;81.34;99279.47;1721496;83;21596;-72
2021/01/10 06:51:56;;;;;;;47.08;23.98;;;;;;;2.30;81.22;99278.47;1722115;83;21157;-73
2021/01/10 06:54:24;;;;;;;41.83;23.30;;;;;;;2.18;81.22;99282.55;1721503;83;21181;-74
2021/01/10 06:56:55;;;;;;;47.60;25.60;;;;;;;2.09;81.38;99291.02;1721918;82;21134;-74
2021/01/10 06:59:27;;;;;;;44.95;24.55;;;;;;;2.02;81.56;99292.78;1721355;83;21588;-73
2021/01/10 07:01:59;;;;;;;44.13;24.30;;;;;;;2.03;81.76;99293.24;1720643;83;21276;-75
2021/01/10 07:04:54;;;;;;;45.85;24.85;;;;;;;2.04;81.81;99297.55;1731988;81;21723;-73
2021/01/10 07:07:39;;;;;;;42.48;24.05;;;;;;;2.06;81.82;99296.83;1714488;81;22229;-74
2021/01/10 07:10:13;;;;;;;46.50;23.98;;;;;;;2.08;81.77;99299.44;1708843;83;21120;-74
2021/01/10 07:12:41;;;;;;;43.13;24.20;;;;;;;2.07;81.76;99300.25;1735460;83;21601;-77
2021/01/10 07:15:24;;;;;;;41.25;22.90;;;;;;;2.06;81.92;99301.03;1708941;83;21262;-74
2021/01/10 07:18:06;;;;;;;43.73;23.67;;;;;;;2.07;81.87;99300.25;1736142;83;21175;-72
2021/01/10 07:20:41;;;;;;;44.65;25.77;;;;;;;2.14;81.97;99294.67;1736024;83;21171;-74
2021/01/10 07:23:31;;;;;;;44.85;23.80;;;;;;;2.21;81.78;99308.56;1735673;83;21609;-73
2021/01/10 07:26:01;;;;;;;52.00;25.37;;;;;;;2.30;81.47;99304.80;1735379;83;21194;-73
2021/01/10 07:28:40;;;;;;;39.88;22.58;;;;;;;2.33;81.23;99311.31;1735679;83;21723;-74
2021/01/10 07:31:15;;;;;;;45.70;24.75;;;;;;;2.37;81.14;99318.72;1735658;83;21712;-73
2021/01/10 07:33:43;;;;;;;45.00;23.92;;;;;;;2.38;81.10;99312.41;1735544;83;21312;-75
2021/01/10 07:36:12;;;;;;;42.23;23.73;;;;;;;2.41;80.97;99318.45;1735591;83;21253;-73
2021/01/10 07:38:42;;;;;;;46.02;24.10;;;;;;;2.43;80.90;99319.00;1735417;83;21321;-75
2021/01/10 07:41:25;;;;;;;41.00;24.75;;;;;;;2.46;80.81;99320.42;1735634;83;21182;-74
2021/01/10 07:43:56;;;;;;;41.65;22.93;;;;;;;2.50;80.61;99320.19;1735637;83;21146;-73
2021/01/10 07:46:57;;;;;;;43.87;23.65;;;;;;;2.51;80.30;99321.92;1735539;83;21179;-77
2021/01/10 07:49:31;;;;;;;43.65;23.15;;;;;;;2.52;80.37;99321.11;1735356;83;21135;-74
2021/01/10 07:52:00;;;;;;;43.87;23.45;;;;;;;2.54;80.38;99320.79;1735460;83;21214;-74
2021/01/10 07:54:52;;;;;;;39.30;22.48;;;;;;;2.59;80.18;99328.26;1735624;83;21155;-74
2021/01/10 07:57:44;;;;;;;;;;;;;;;2.61;80.21;99322.84;1737786;83;21159;-73
2021/01/10 08:00:19;;;;;;;43.17;24.43;;;;;;;2.61;80.16;99329.21;1742177;82;20135;-73
2021/01/10 08:03:08;;;;;;;44.30;24.05;;;;;;;2.63;80.11;99330.57;1714190;82;21304;-72
2021/01/10 08:05:41;;;;;;;39.25;22.48;;;;;;;2.68;80.17;99331.26;1714556;83;21209;-73
2021/01/10 08:08:19;;;;;;;38.48;21.97;;;;;;;2.78;79.64;99335.99;1739355;82;21164;-78
2021/01/10 08:10:50;;;;;;;42.20;22.32;;;;;;;2.73;79.80;99336.17;1739375;82;21315;-74
2021/01/10 08:13:57;;;;;;;46.40;24.90;;;;;;;2.82;79.80;99332.80;1739494;82;21173;-73
2021/01/10 08:16:33;;;;;;;42.45;23.77;;;;;;;2.92;79.69;99337.04;1676759;84;21130;-71
2021/01/10 08:19:07;;;;;;;40.70;23.27;;;;;;;3.00;79.48;99336.99;1676866;84;21134;-68
2021/01/10 08:21:35;;;;;;;46.18;23.67;;;;;;;2.96;79.09;99338.53;1676814;84;21166;-65
2021/01/10 08:24:07;;;;;;;40.52;23.55;;;;;;;2.90;79.46;99338.64;1677165;85;21150;-67
2021/01/10 08:26:43;;;;;;;40.88;21.93;;;;;;;2.90;79.53;99335.72;1676889;84;21122;-74
2021/01/10 08:29:14;;;;;;;42.10;23.80;;;;;;;2.95;79.53;99339.35;1676815;85;21621;-74
2021/01/10 08:31:44;;;;;;;45.40;24.75;;;;;;;2.97;79.32;99340.68;1648899;85;21316;-72
2021/01/10 08:34:16;;;;;;;41.98;23.87;;;;;;;2.90;79.50;99339.91;1676148;84;21166;-66
2021/01/10 08:36:47;;;;;;;43.65;24.40;;;;;;;2.90;79.63;99338.64;1677196;85;21739;-74
2021/01/10 08:39:18;;;;;;;39.18;22.90;;;;;;;2.93;79.46;99340.95;1677195;84;21173;-70
2021/01/10 08:41:50;;;;;;;38.30;22.62;;;;;;;2.95;79.49;99347.00;1677170;84;21585;-71
2021/01/10 08:44:21;;;;;;;42.70;23.80;;;;;;;2.91;79.19;99345.09;1676667;84;21234;-76
2021/01/10 08:46:51;;;;;;;36.20;21.10;;;;;;;2.78;79.56;99342.37;1677142;84;21149;-67
2021/01/10 08:49:23;;;;;;;39.10;21.42;;;;;;;2.70;79.55;99341.13;1676879;84;21185;-73
2021/01/10 08:51:52;;;;;;;38.70;22.02;;;;;;;2.55;79.62;99340.39;1676926;84;21296;-69
2021/01/10 08:54:26;;;;;;;42.43;23.25;;;;;;;2.59;79.93;99339.72;1677113;84;21158;-70
2021/01/10 08:56:56;;;;;;;39.63;21.02;;;;;;;2.65;80.05;99344.27;1677043;84;21282;-71
2021/01/10 08:59:38;;;;;;;41.35;23.07;;;;;;;2.66;80.05;99343.05;1677843;85;21169;-71
2021/01/10 09:02:08;;;;;;;39.80;21.90;;;;;;;2.73;80.07;99342.55;1677830;85;21292;-76
2021/01/10 09:04:42;;;;;;;39.08;21.55;;;;;;;2.75;79.60;99338.81;1677875;85;21170;-71
2021/01/10 09:07:20;;;;;;;38.17;21.50;;;;;;;2.70;79.61;99338.58;1677811;84;21130;-72
2021/01/10 09:10:03;;;;;;;42.27;22.42;;;;;;;2.76;79.68;99339.27;1677846;84;21620;-72
2021/01/10 09:12:37;;;;;;;38.13;21.40;;;;;;;2.90;79.30;99337.36;1677713;84;21146;-70
2021/01/10 09:15:09;;;;;;;45.28;22.35;;;;;;;2.87;78.95;99330.45;1675965;84;21354;-70
2021/01/10 09:17:42;;;;;;;39.88;21.48;;;;;;;2.80;79.08;99333.13;1674355;85;21183;-70
2021/01/10 09:20:25;;;;;;;41.33;22.45;;;;;;;2.80;79.04;99335.67;1719745;81;21166;-70
2021/01/10 09:22:56;;;;;;;38.90;22.07;;;;;;;2.83;78.60;99333.27;1720044;81;21285;-70
2021/01/10 09:25:25;;;;;;;41.30;21.65;;;;;;;2.79;78.26;99331.77;1722961;81;21576;-69
2021/01/10 09:28:14;;;;;;;37.33;19.60;;;;;;;2.59;78.34;99331.67;1700289;84;21123;-71
2021/01/10 09:30:47;;;;;;;35.25;19.12;;;;;;;2.47;78.62;99323.83;1718196;81;21148;-73
2021/01/10 09:33:25;;;;;;;40.20;20.50;;;;;;;2.32;78.78;99328.67;1720259;82;21143;-74
2021/01/10 09:35:55;;;;;;;41.23;21.62;;;;;;;2.39;79.09;99326.91;1720970;81;21308;-72
2021/01/10 09:45:36;;;;;;;38.63;20.62;;;;;;;2.55;79.19;99333.61;1719757;82;21105;-75
2021/01/10 09:48:11;;;;;;;37.93;19.65;;;;;;;2.65;78.79;99331.53;1737001;81;21139;-73
2021/01/10 09:50:39;;;;;;;38.92;21.15;;;;;;;2.62;78.88;99330.98;1733385;81;21623;-71
2021/01/10 09:53:07;;;;;;;36.83;19.32;;;;;;;2.66;78.59;99339.63;1736131;81;21159;-73
2021/01/10 09:55:52;;;;;;;36.40;19.65;;;;;;;2.68;78.08;99330.39;1739724;81;21602;-73
2021/01/10 09:58:26;;;;;;;37.40;19.55;;;;;;;2.69;78.16;99339.36;1744010;81;21144;-75
2021/01/10 10:00:57;;;;;;;32.88;19.65;;;;;;;2.68;77.65;99331.26;1725788;82;21131;-75
2021/01/10 10:03:26;;;;;;;37.17;21.73;;;;;;;2.62;77.64;99333.52;1692066;82;21143;-74
2021/01/10 10:05:58;;;;;;;32.53;18.77;;;;;;;2.59;77.80;99330.80;1720906;82;21159;-75
2021/01/10 10:08:28;;;;;;;38.50;20.05;;;;;;;2.61;77.86;99334.30;1721533;82;21889;-75
2021/01/10 10:10:58;;;;;;;36.90;21.15;;;;;;;2.61;78.07;99331.76;1721252;82;21174;-74
2021/01/10 10:13:27;;;;;;;36.08;20.85;;;;;;;2.68;78.09;99326.57;1709280;81;21130;-75
2021/01/10 10:15:58;;;;;;;42.55;21.90;;;;;;;2.71;77.95;99328.84;1721876;81;21173;-75
2021/01/10 10:18:34;;;;;;;37.03;19.47;;;;;;;2.63;78.00;99330.16;1711296;81;21105;-75
2021/01/10 10:21:06;;;;;;;35.10;18.67;;;;;;;2.61;77.75;99324.11;1727591;81;21263;-70
2021/01/10 10:23:34;;;;;;;39.30;21.00;;;;;;;2.55;77.83;99323.83;1736242;81;21283;-74
2021/01/10 10:26:02;;;;;;;35.10;19.67;;;;;;;2.44;78.09;99327.52;1743082;81;21317;-74
2021/01/10 10:28:30;;;;;;;39.23;20.90;;;;;;;2.50;78.46;99327.83;1712701;82;21125;-75
2021/01/10 10:30:58;;;;;;;40.28;21.42;;;;;;;2.63;78.12;99332.71;1744951;81;21139;-75
2021/01/10 10:33:26;;;;;;;34.90;19.35;;;;;;;2.73;77.98;99326.39;1727755;81;21143;-75
2021/01/10 10:35:54;;;;;;;31.65;18.15;;;;;;;2.75;77.49;99329.48;1724536;82;21113;-77
2021/01/10 10:38:24;;;;;;;36.85;18.92;;;;;;;2.75;77.29;99319.29;1737900;81;21280;-77
2021/01/10 10:40:53;;;;;;;36.95;20.25;;;;;;;2.75;77.01;99321.84;1752657;81;21315;-77
2021/01/10 10:43:21;;;;;;;35.70;19.70;;;;;;;2.73;76.77;99324.70;1764577;81;21133;-71
2021/01/10 10:45:50;;;;;;;35.95;19.70;;;;;;;2.66;76.92;99325.62;1764104;81;21613;-75
2021/01/10 10:48:20;;;;;;;32.50;18.70;;;;;;;2.69;76.69;99321.53;1767343;81;21499;-75
2021/01/10 10:50:51;;;;;;;32.55;18.98;;;;;;;2.71;76.34;99322.89;1770987;79;21194;-75
2021/01/10 10:53:33;;;;;;;31.17;19.02;;;;;;;2.52;76.42;99318.56;1763736;81;21152;-74
2021/01/10 10:56:02;;;;;;;35.50;19.12;;;;;;;2.39;76.88;99320.54;1734381;81;21099;-76
2021/01/10 10:58:38;;;;;;;35.40;18.57;;;;;;;2.38;77.20;99313.68;1772874;81;21153;-78
2021/01/10 11:01:11;;;;;;;37.23;19.23;;;;;;;2.45;77.18;99316.55;1769117;81;21160;-77
2021/01/10 11:03:39;;;;;;;32.63;18.75;;;;;;;2.38;77.26;99316.23;1767139;81;21614;-77
2021/01/10 11:06:08;;;;;;;36.08;20.68;;;;;;;2.42;77.57;99315.09;1771381;81;21600;-77
2021/01/10 11:08:35;;;;;;;33.53;19.25;;;;;;;2.47;77.53;99314.92;1772531;81;21232;-78
2021/01/10 11:11:07;;;;;;;32.08;19.23;;;;;;;2.43;77.39;99313.04;1771820;81;21223;-74
2021/01/10 11:13:40;;;;;;;35.85;20.65;;;;;;;2.34;77.57;99316.89;1772672;81;21271;-77
2021/01/10 11:16:10;;;;;;;32.25;18.87;;;;;;;2.34;77.94;99315.63;1742440;81;21559;-73
2021/01/10 11:18:38;;;;;;;39.80;21.12;;;;;;;2.35;77.73;99313.94;1771798;81;21137;-73
2021/01/10 11:21:07;;;;;;;39.98;21.12;;;;;;;2.43;77.75;99319.41;1770531;81;21726;-73
2021/01/10 11:23:35;;;;;;;36.85;20.82;;;;;;;2.54;77.83;99319.52;1770541;81;21311;-74
2021/01/10 11:26:09;;;;;;;37.73;20.50;;;;;;;2.70;77.65;99318.61;1770510;81;21182;-76
2021/01/10 11:28:42;;;;;;;38.20;21.23;;;;;;;2.78;77.38;99321.98;1771573;81;21203;-73
2021/01/10 11:31:10;;;;;;;40.15;21.07;;;;;;;2.79;77.23;99326.67;1761219;81;21616;-73
2021/01/10 11:33:38;;;;;;;38.17;20.95;;;;;;;2.90;77.06;99327.17;1768495;81;21143;-73
2021/01/10 11:36:08;;;;;;;39.70;22.07;;;;;;;2.89;76.66;99328.84;1718815;81;21160;-76
2021/01/10 11:38:38;;;;;;;38.95;20.92;;;;;;;2.94;76.28;99326.52;1715016;82;21187;-75
2021/01/10 11:41:12;;;;;;;34.78;19.77;;;;;;;2.90;76.41;99329.72;1722170;81;21684;-71
2021/01/10 11:43:40;;;;;;;36.83;20.02;;;;;;;2.82;76.17;99321.70;1743785;81;21553;-74
2021/01/10 11:46:09;;;;;;;36.98;20.70;;;;;;;2.71;76.53;99326.30;1724186;83;21567;-75
2021/01/10 11:48:46;;;;;;;34.33;18.30;;;;;;;2.69;76.90;99327.03;1725809;83;21170;-74
2021/01/10 11:51:17;;;;;;;36.05;19.12;;;;;;;2.65;76.73;99329.84;1764896;80;21157;-76
2021/01/10 11:53:46;;;;;;;33.83;18.70;;;;;;;2.55;76.94;99331.47;1762983;80;21093;-76
2021/01/10 11:56:23;;;;;;;35.28;19.73;;;;;;;2.56;77.04;99335.35;1761376;80;21141;-75